Time,TemperatureF,DewpointF,PressureIn,WindDirection,WindDirectionDegrees,WindSpeedMPH,WindSpeedGustMPH,Humidity,HourlyPrecipIn,Conditions,Clouds,dailyrainin,SoftwareType,DateUTC
2013-01-12 00:00:00,49.7,47.5,29.84,WNW,292,3.0,8.0,92,0.00,,SKC,0.00,VWS V14.01,2013-01-12 05:00:00,
2013-01-12 01:00:00,49.9,48.0,29.83,WNW,292,2.0,7.0,93,0.00,,SKC,0.00,VWS V14.01,2013-01-12 06:00:00,
2013-01-12 02:00:00,50.1,48.4,29.84,WNW,292,3.0,5.0,94,0.00,,SKC,0.00,VWS V14.01,2013-01-12 07:00:00,
2013-01-12 03:00:00,50.8,49.1,29.85,WNW,292,5.0,8.0,94,0.00,,SKC,0.00,VWS V14.01,2013-01-12 08:00:00,
2013-01-12 04:00:00,51.9,50.2,29.85,WNW,292,4.0,7.0,94,0.00,,SKC,0.00,VWS V14.01,2013-01-12 09:00:00,
2013-01-12 05:00:00,52.9,51.5,29.85,WNW,292,5.0,8.0,95,0.00,,SKC,0.00,VWS V14.01,2013-01-12 10:00:00,
2013-01-12 06:00:00,53.4,52.0,29.86,WNW,292,2.0,7.0,95,0.00,,SKC,0.00,VWS V14.01,2013-01-12 11:00:00,
2013-01-12 07:00:00,53.8,52.4,29.87,WNW,292,1.0,7.0,95,0.00,,SKC,0.00,VWS V14.01,2013-01-12 12:00:00,
2013-01-12 08:00:00,53.8,51.8,29.89,NW,315,5.0,9.0,93,0.00,,SKC,0.00,VWS V14.01,2013-01-12 13:00:00,
2013-01-12 09:00:00,54.1,51.2,29.90,NW,315,6.0,10.0,90,0.00,,SKC,0.00,VWS V14.01,2013-01-12 14:00:00,
2013-01-12 10:00:00,55.1,51.6,29.91,NW,315,6.0,12.0,88,0.00,,SKC,0.00,VWS V14.01,2013-01-12 15:00:00,
2013-01-12 11:00:00,56.1,51.7,29.91,NW,315,6.0,12.0,85,0.00,,SKC,0.00,VWS V14.01,2013-01-12 16:00:00,
2013-01-12 12:00:00,57.0,51.6,29.89,NW,315,6.0,12.0,82,0.00,,SKC,0.00,VWS V14.01,2013-01-12 17:00:00,
2013-01-12 13:00:00,58.5,51.3,29.88,NW,315,4.0,12.0,77,0.00,,SKC,0.00,VWS V14.01,2013-01-12 18:00:00,
2013-01-12 14:00:00,59.5,51.6,29.88,NW,315,4.0,9.0,75,0.00,,SKC,0.00,VWS V14.01,2013-01-12 19:00:00,
2013-01-12 15:00:00,59.6,52.4,29.87,WNW,292,6.0,9.0,77,0.00,,SKC,0.00,VWS V14.01,2013-01-12 20:00:00,
2013-01-12 16:00:00,59.4,52.2,29.88,NW,315,5.0,10.0,77,0.00,,SKC,0.00,VWS V14.01,2013-01-12 21:00:00,
2013-01-12 17:00:00,59.0,52.5,29.87,WNW,292,4.0,8.0,79,0.00,,SKC,0.00,VWS V14.01,2013-01-12 22:00:00,
2013-01-12 18:00:00,58.4,52.3,29.85,WNW,292,3.0,7.0,80,0.00,,SKC,0.00,VWS V14.01,2013-01-12 23:00:00,
2013-01-12 19:00:00,57.8,52.7,29.85,WNW,292,2.0,7.0,83,0.00,,SKC,0.00,VWS V14.01,2013-01-13 00:00:00,
2013-01-12 20:00:00,57.5,52.1,29.83,WSW,248,5.0,8.0,82,0.00,,SKC,0.00,VWS V14.01,2013-01-13 01:00:00,
2013-01-12 21:00:00,58.2,53.1,29.80,West,270,5.0,11.0,83,0.00,,SKC,0.00,VWS V14.01,2013-01-13 02:00:00,
2013-01-12 22:00:00,59.3,54.8,29.78,WNW,292,4.0,8.0,85,0.00,,SKC,0.00,VWS V14.01,2013-01-13 03:00:00,
2013-01-12 23:00:00,60.0,55.2,29.76,WNW,292,7.0,11.0,84,0.00,,SKC,0.00,VWS V14.01,2013-01-13 04:00:00,